createdAt,value
2022-09-26T00:05:29.606Z,62
2022-09-26T00:15:37.114Z,65
2022-09-26T00:25:45.606Z,66
2022-09-26T00:35:53.119Z,66
2022-09-26T00:46:00.811Z,67
2022-09-26T00:56:09.375Z,68
2022-09-26T01:06:16.795Z,70
2022-09-26T01:16:24.240Z,69
2022-09-26T01:26:31.680Z,69
2022-09-26T01:36:39.220Z,70
2022-09-26T01:46:47.016Z,69
2022-09-26T01:56:55.566Z,69
2022-09-26T02:07:03.002Z,70
2022-09-26T02:17:11.758Z,69
2022-09-26T02:27:19.506Z,68
2022-09-26T02:37:26.983Z,68
2022-09-26T02:47:34.418Z,69
2022-09-26T02:57:41.860Z,70
2022-09-26T03:07:49.402Z,70
2022-09-26T03:17:56.851Z,69
2022-09-26T03:28:04.308Z,69
2022-09-26T03:38:14.196Z,70
2022-09-26T03:48:18.222Z,70
2022-09-26T03:58:26.924Z,70
2022-09-26T04:08:34.417Z,70
2022-09-26T04:18:43.454Z,70
2022-09-26T04:28:51.773Z,70
2022-09-26T04:39:00.061Z,71
2022-09-26T04:49:08.307Z,72
2022-09-26T04:59:08.148Z,72
2022-09-26T05:09:15.691Z,71
2022-09-26T05:19:23.037Z,71
2022-09-26T05:29:30.486Z,72
2022-09-26T05:39:41.642Z,72
2022-09-26T05:49:43.934Z,71
2022-09-26T05:59:52.716Z,69
2022-09-26T06:10:00.187Z,67
2022-09-26T06:20:07.674Z,66
2022-09-26T06:30:16.243Z,65
2022-09-26T06:40:23.728Z,65
2022-09-26T06:50:33.514Z,64
2022-09-26T07:00:41.404Z,63
2022-09-26T07:10:48.734Z,63
2022-09-26T07:20:56.868Z,63
2022-09-26T07:31:02.158Z,64
2022-09-26T07:41:09.863Z,63
2022-09-26T07:51:17.234Z,60
2022-09-26T08:01:24.702Z,56
2022-09-26T08:11:32.340Z,54
2022-09-26T08:21:39.869Z,51
2022-09-26T08:31:47.439Z,51
2022-09-26T08:41:54.871Z,49
2022-09-26T08:52:02.368Z,49
2022-09-26T09:02:09.929Z,48
2022-09-26T09:12:20.616Z,47
2022-09-26T09:22:23.469Z,46
2022-09-26T09:32:31.047Z,46
2022-09-26T09:42:38.580Z,45
2022-09-26T09:52:46.095Z,44
2022-09-26T10:02:54.600Z,44
2022-09-26T10:13:02.104Z,44
2022-09-26T10:23:09.692Z,43
2022-09-26T10:33:17.542Z,42
2022-09-26T10:43:26.473Z,41
2022-09-26T10:53:35.957Z,40
2022-09-26T11:03:45.802Z,39
2022-09-26T11:13:54.967Z,38
2022-09-26T11:23:55.906Z,36
2022-09-26T11:34:04.402Z,37
2022-09-26T11:44:14.182Z,36
2022-09-26T11:54:22.330Z,39
2022-09-26T12:04:31.372Z,40
2022-09-26T12:14:39.053Z,41
2022-09-26T12:24:47.479Z,42
2022-09-26T12:34:55.366Z,43
2022-09-26T12:45:04.182Z,43
2022-09-26T12:55:13.347Z,44
2022-09-26T13:05:22.647Z,43
2022-09-26T13:15:30.186Z,42
2022-09-26T13:25:37.987Z,42
2022-09-26T13:35:44.448Z,41
2022-09-26T13:45:53.222Z,38
2022-09-26T13:56:02.017Z,39
2022-09-26T14:06:10.805Z,39
2022-09-26T14:16:18.463Z,37
2022-09-26T14:36:28.228Z,32
2022-09-26T14:46:36.635Z,30
2022-09-26T14:56:47.203Z,28
2022-09-26T15:06:54.812Z,28
2022-09-26T15:17:03.709Z,28
2022-09-26T15:27:11.420Z,28
2022-09-26T15:37:19.160Z,29
2022-09-26T15:47:26.663Z,29
2022-09-26T15:57:35.184Z,30
2022-09-26T16:07:42.641Z,30
2022-09-26T16:17:50.161Z,30
2022-09-26T16:27:58.796Z,31
2022-09-26T16:38:06.248Z,30
2022-09-26T16:48:13.722Z,29
2022-09-26T16:58:23.821Z,30
2022-09-26T17:08:27.725Z,30
2022-09-26T17:18:35.253Z,31
2022-09-26T17:28:42.756Z,31
2022-09-26T17:38:50.153Z,32
2022-09-26T17:48:59.238Z,32
2022-09-26T17:59:06.941Z,33
2022-09-26T18:09:15.228Z,33
2022-09-26T18:19:24.728Z,33
2022-09-26T18:29:33.513Z,34
2022-09-26T18:39:41.751Z,35
2022-09-26T18:49:48.983Z,35
2022-09-26T18:59:56.736Z,36
2022-09-26T19:10:04.607Z,37
2022-09-26T19:20:13.722Z,37
2022-09-26T19:30:22.424Z,37
2022-09-26T19:40:30.174Z,38
2022-09-26T19:50:37.723Z,38
2022-09-26T20:00:46.171Z,39
2022-09-26T20:10:54.098Z,39
2022-09-26T20:21:01.617Z,40
2022-09-26T20:31:09.079Z,41
2022-09-26T20:41:18.011Z,41
2022-09-26T20:51:25.437Z,41
2022-09-26T21:01:32.855Z,40
2022-09-26T21:11:40.339Z,40
2022-09-26T21:21:47.681Z,39
2022-09-26T21:31:55.179Z,40
2022-09-26T21:42:02.848Z,39
2022-09-26T21:52:10.219Z,40
2022-09-26T22:02:17.658Z,40
2022-09-26T22:12:25.030Z,41
2022-09-26T22:22:33.278Z,41
2022-09-26T22:32:40.781Z,41
2022-09-26T22:42:48.223Z,40
2022-09-26T22:52:55.632Z,40
2022-09-26T23:03:02.998Z,40
2022-09-26T23:13:10.330Z,40
2022-09-26T23:23:18.923Z,40
2022-09-26T23:33:26.428Z,41
2022-09-26T23:43:33.765Z,41
2022-09-26T23:53:41.216Z,42
